Time;durP1;ratioP1;P1;durP2;ratioP2;P2;SDS_P1;SDS_P2;PMS_P1;PMS_P2;Temp;Humidity;BMP_temperature;BMP_pressure;BME280_temperature;BME280_humidity;BME280_pressure;Samples;Min_cycle;Max_cycle;Signal;HPM_P1;HPM_P2
2022/07/01 00:02:03;;;;;;;;;;;;;;;17.09;100.00;99570.92;1709202;82;20386;-70
2022/07/01 00:04:38;;;;;;;;;;;;;;;17.08;100.00;99569.89;1709387;83;20151;-71
2022/07/01 00:07:24;;;;;;;;;;;;;;;17.06;100.00;99570.83;1709501;84;20099;-71
2022/07/01 00:09:59;;;;;;;;;;;;;;;17.03;100.00;99572.93;1709520;84;20111;-70
2022/07/01 00:12:31;;;;;;;;;;;;;;;17.01;100.00;99578.84;1688992;83;20527;-70
2022/07/01 00:15:03;;;;;;;;;;;;;;;16.98;100.00;99578.16;1688106;83;20742;-70
2022/07/01 00:17:31;;;;;;;;;;;;;;;16.96;100.00;99576.91;1666363;83;20104;-70
2022/07/01 00:19:58;;;;;;;;;;;;;;;16.93;100.00;99577.62;1719090;83;20095;-71
2022/07/01 00:22:27;;;;;;;;;;;;;;;16.92;100.00;99580.98;1719157;83;20111;-70
2022/07/01 00:24:57;;;;;;;;;;;;;;;16.91;100.00;99579.37;1711362;83;20146;-70
2022/07/01 00:27:31;;;;;;;;;;;;;;;16.89;100.00;99581.69;1688610;83;20095;-71
2022/07/01 00:30:02;;;;;;;;;;;;;;;16.86;100.00;99579.63;1689035;83;20119;-71
2022/07/01 00:32:29;;;;;;;;;;;;;;;16.83;100.00;99575.60;1718774;83;20562;-71
2022/07/01 00:34:58;;;;;;;;;;;;;;;16.79;100.00;99569.16;1718953;83;20570;-71
2022/07/01 00:37:28;;;;;;;;;;;;;;;16.77;100.00;99572.87;1689134;83;20464;-70
2022/07/01 00:39:58;;;;;;;;;;;;;;;16.77;100.00;99573.45;1692097;82;20312;-70
2022/07/01 00:42:26;;;;;;;;;;;;;;;16.74;100.00;99575.00;1716916;82;20156;-71
2022/07/01 00:44:55;;;;;;;;;;;;;;;16.72;100.00;99575.13;1748980;82;20097;-70
2022/07/01 00:47:22;;;;;;;;;;;;;;;16.70;100.00;99574.09;1744467;82;20904;-71
2022/07/01 00:49:51;;;;;;;;;;;;;;;16.67;100.00;99575.39;1749102;82;20081;-70
2022/07/01 00:52:19;;;;;;;;;;;;;;;16.64;100.00;99575.52;1717784;82;20069;-70
2022/07/01 00:54:46;;;;;;;;;;;;;;;16.62;100.00;99579.19;1749304;82;20112;-70
2022/07/01 00:57:14;;;;;;;;;;;;;;;16.61;100.00;99576.78;1749007;82;20093;-71
2022/07/01 00:59:48;;;;;;;;;;;;;;;16.60;100.00;99575.16;1748918;82;20073;-71
2022/07/01 01:02:20;;;;;;;;;;;;;;;16.59;100.00;99575.75;1748353;82;20436;-70
2022/07/01 01:04:54;;;;;;;;;;;;;;;16.57;100.00;99573.91;1748213;82;21234;-70
2022/07/01 01:07:19;;;;;;;;;;;;;;;16.56;100.00;99572.88;1716299;82;20145;-70
2022/07/01 01:09:52;;;;;;;;;;;;;;;16.55;100.00;99574.84;1747846;82;20069;-71
2022/07/01 01:12:19;;;;;;;;;;;;;;;16.53;100.00;99575.78;1754846;81;20374;-70
2022/07/01 01:14:52;;;;;;;;;;;;;;;16.51;100.00;99582.25;1761328;81;20204;-70
2022/07/01 01:17:22;;;;;;;;;;;;;;;16.47;100.00;99571.08;1738887;81;20093;-70
2022/07/01 01:20:02;;;;;;;;;;;;;;;16.45;100.00;99576.16;1761240;81;20108;-70
2022/07/01 01:22:18;;;;;;;;;;;;;;;16.44;100.00;99575.13;1757412;81;20463;-71
2022/07/01 01:24:47;;;;;;;;;;;;;;;16.42;100.00;99566.37;1761294;81;20118;-70
2022/07/01 01:27:17;;;;;;;;;;;;;;;16.38;100.00;99558.53;1739398;81;20104;-70
2022/07/01 01:29:52;;;;;;;;;;;;;;;16.37;100.00;99563.27;1760827;81;21230;-70
2022/07/01 01:32:22;;;;;;;;;;;;;;;16.36;100.00;99562.23;1761040;81;20116;-70
2022/07/01 01:34:55;;;;;;;;;;;;;;;16.34;100.00;99559.02;1735444;81;20423;-70
2022/07/01 01:37:25;;;;;;;;;;;;;;;16.31;100.00;99559.14;1736105;81;21072;-70
2022/07/01 01:39:59;;;;;;;;;;;;;;;16.28;100.00;99561.23;1738263;81;37613;-71
2022/07/01 01:42:28;;;;;;;;;;;;;;;16.26;100.00;99566.33;1761340;81;21536;-70
2022/07/01 01:44:57;;;;;;;;;;;;;;;16.23;100.00;99559.30;1761290;81;20092;-70
2022/07/01 01:47:25;;;;;;;;;;;;;;;16.21;100.00;99563.80;1761223;81;20080;-71
2022/07/01 01:49:54;;;;;;;;;;;;;;;16.19;100.00;99564.73;1761067;80;20400;-71
2022/07/01 01:52:26;;;;;;;;;;;;;;;16.17;100.00;99566.47;1738387;81;20104;-71
2022/07/01 01:54:55;;;;;;;;;;;;;;;16.17;100.00;99572.63;1760442;81;21880;-70
2022/07/01 01:57:22;;;;;;;;;;;;;;;16.16;100.00;99573.78;1761417;81;20100;-70
2022/07/01 01:59:50;;;;;;;;;;;;;;;16.15;100.00;99573.55;1761415;81;20144;-70
2022/07/01 02:02:17;;;;;;;;;;;;;;;16.14;100.00;99576.09;1757479;81;20676;-70
2022/07/01 02:04:46;;;;;;;;;;;;;;;16.13;100.00;99581.41;1761470;81;20072;-71
2022/07/01 02:07:14;;;;;;;;;;;;;;;16.12;100.00;99583.95;1761695;81;22870;-70
2022/07/01 02:09:43;;;;;;;;;;;;;;;16.10;100.00;99584.88;1761455;81;20100;-70
2022/07/01 02:12:14;;;;;;;;;;;;;;;16.09;100.00;99591.58;1730814;82;20109;-71
2022/07/01 02:14:54;;;;;;;;;;;;;;;16.09;100.00;99592.95;1736695;82;20169;-71
2022/07/01 02:17:09;;;;;;;;;;;;;;;16.08;100.00;99588.00;1732819;82;20424;-71
2022/07/01 02:19:40;;;;;;;;;;;;;;;16.08;100.00;99592.73;1714182;82;20444;-71
2022/07/01 02:22:22;;;;;;;;;;;;;;;16.07;100.00;99591.12;1712333;82;20491;-71
2022/07/01 02:24:49;;;;;;;;;;;;;;;16.08;100.00;99596.30;1736686;82;20128;-71
2022/07/01 02:27:23;;;;;;;;;;;;;;;16.07;100.00;99587.77;1728055;82;20449;-71
2022/07/01 02:29:50;;;;;;;;;;;;;;;16.09;100.00;99591.58;1714510;82;20084;-71
2022/07/01 02:32:16;;;;;;;;;;;;;;;16.09;100.00;99592.95;1720025;82;21499;-72
2022/07/01 02:34:42;;;;;;;;;;;;;;;16.12;100.00;99602.75;1725700;82;20118;-71
2022/07/01 02:37:11;;;;;;;;;;;;;;;16.15;100.00;99598.48;1726672;82;20424;-70
2022/07/01 02:39:42;;;;;;;;;;;;;;;16.20;100.00;99595.43;1736713;82;20577;-70
2022/07/01 02:42:28;;;;;;;;;;;;;;;16.24;100.00;99592.77;1736779;82;20117;-70
2022/07/01 02:45:00;;;;;;;;;;;;;;;16.26;100.00;99591.83;1707643;82;21254;-71
2022/07/01 02:47:34;;;;;;;;;;;;;;;16.28;100.00;99596.44;1706918;84;20176;-71
2022/07/01 02:50:07;;;;;;;;;;;;;;;16.32;100.00;99600.92;1706522;84;20131;-71
2022/07/01 02:52:40;;;;;;;;;;;;;;;16.35;100.00;99600.22;1707392;84;20088;-71
2022/07/01 02:55:07;;;;;;;;;;;;;;;16.42;100.00;99603.77;1707007;84;20096;-70
2022/07/01 02:57:34;;;;;;;;;;;;;;;16.48;100.00;99599.01;1707642;84;21734;-71
2022/07/01 03:00:01;;;;;;;;;;;;;;;16.57;100.00;99600.23;1724025;82;20094;-71
2022/07/01 03:02:28;;;;;;;;;;;;;;;16.67;100.00;99600.34;1736198;82;20121;-71
2022/07/01 03:04:56;;;;;;;;;;;;;;;16.77;100.00;99599.78;1736389;82;20784;-70
2022/07/01 03:07:28;;;;;;;;;;;;;;;16.86;100.00;99597.65;1736357;82;20128;-71
2022/07/01 03:09:55;;;;;;;;;;;;;;;16.95;100.00;99598.87;1736363;82;21563;-71
2022/07/01 03:12:45;;;;;;;;;;;;;;;17.02;100.00;99595.70;1742944;81;20092;-71
2022/07/01 03:15:00;;;;;;;;;;;;;;;17.11;100.00;99595.52;1723554;83;20129;-70
2022/07/01 03:17:30;;;;;;;;;;;;;;;17.20;100.00;99591.18;1760974;81;20229;-70
2022/07/01 03:20:06;;;;;;;;;;;;;;;17.30;100.00;99594.80;1761132;81;20120;-71
2022/07/01 03:22:36;;;;;;;;;;;;;;;17.38;100.00;99597.94;1759556;81;21126;-71
2022/07/01 03:25:10;;;;;;;;;;;;;;;17.47;100.00;99604.91;1760916;81;20104;-70
2022/07/01 03:27:36;;;;;;;;;;;;;;;17.59;100.00;99604.58;1761014;81;20132;-71
2022/07/01 03:30:03;;;;;;;;;;;;;;;17.71;100.00;99609.47;1761334;81;20453;-71
2022/07/01 03:32:35;;;;;;;;;;;;;;;17.84;100.00;99600.44;1755986;81;20127;-70
2022/07/01 03:35:35;;;;;;;;;;;;;;;17.96;100.00;99598.09;1722756;82;20118;-70
2022/07/01 03:37:39;;;;;;;;;;;;;;;18.08;100.00;99604.91;1727941;83;20098;-71
2022/07/01 03:40:03;;;;;;;;;;;;;;;18.19;100.00;99610.10;1730601;82;20106;-71
2022/07/01 03:42:34;;;;;;;;;;;;;;;18.28;100.00;99608.50;1743786;81;20448;-71
2022/07/01 03:45:03;;;;;;;;;;;;;;;18.39;100.00;99609.52;1733622;81;20075;-72
2022/07/01 03:47:30;;;;;;;;;;;;;;;18.51;100.00;99608.53;1730774;83;21093;-71
2022/07/01 03:50:00;;;;;;;;;;;;;;;18.62;100.00;99609.00;1730675;83;20086;-70
2022/07/01 03:52:35;;;;;;;;;;;;;;;18.77;100.00;99621.20;1730720;83;20436;-71
2022/07/01 03:55:07;;;;;;;;;;;;;;;18.90;100.00;99617.66;1730871;83;20561;-71
2022/07/01 03:57:37;;;;;;;;;;;;;;;19.06;100.00;99618.35;1727540;81;20095;-71
2022/07/01 04:00:11;;;;;;;;;;;;;;;19.15;100.00;99616.09;1730642;83;21167;-71
2022/07/01 04:02:37;;;;;;;;;;;;;;;19.25;100.00;99612.69;1730440;83;20149;-71
2022/07/01 04:05:07;;;;;;;;;;;;;;;19.37;100.00;99610.30;1731150;83;20178;-71
2022/07/01 04:07:41;;;;;;;;;;;;;;;19.46;100.00;99608.88;1730798;83;20441;-71
2022/07/01 04:10:07;;;;;;;;;;;;;;;19.56;100.00;99610.25;1729851;83;20099;-71
2022/07/01 04:12:36;;;;;;;;;;;;;;;19.67;100.00;99606.20;1725574;83;21181;-71
2022/07/01 04:15:05;;;;;;;;;;;;;;;19.79;100.00;99614.34;1715950;82;20084;-71
2022/07/01 04:17:41;;;;;;;;;;;;;;;19.88;100.00;99609.89;1728025;82;20097;-71
2022/07/01 04:20:07;;;;;;;;;;;;;;;19.96;100.00;99613.80;1723476;82;20640;-72
2022/07/01 04:22:36;;;;;;;;;;;;;;;20.05;100.00;99610.14;1724511;82;20142;-75
2022/07/01 04:25:15;;;;;;;;;;;;;;;20.17;100.00;99613.28;1727391;82;21252;-74
2022/07/01 04:27:39;;;;;;;;;;;;;;;20.28;100.00;99611.41;1708056;84;20511;-72
2022/07/01 04:30:10;;;;;;;;;;;;;;;20.42;100.00;99614.41;1718100;82;20411;-72
2022/07/01 04:32:50;;;;;;;;;;;;;;;20.55;100.00;99614.95;1712108;82;20416;-72
2022/07/01 04:35:17;;;;;;;;;;;;;;;20.69;100.00;99617.11;1728496;82;20105;-72
2022/07/01 04:37:47;;;;;;;;;;;;;;;20.84;100.00;99624.41;1718548;82;20097;-71
2022/07/01 04:40:15;;;;;;;;;;;;;;;20.99;100.00;99619.19;1721577;82;20119;-72
2022/07/01 04:42:48;;;;;;;;;;;;;;;21.15;100.00;99620.94;1709181;84;20430;-71
2022/07/01 04:45:21;;;;;;;;;;;;;;;21.30;100.00;99624.09;1708047;83;20074;-75
2022/07/01 04:47:49;;;;;;;;;;;;;;;21.46;99.64;99622.41;1708239;84;20100;-74
2022/07/01 04:50:19;;;;;;;;;;;;;;;21.62;98.18;99624.33;1709247;84;21152;-73
2022/07/01 04:52:49;;;;;;;;;;;;;;;21.77;96.04;99630.81;1708780;84;20116;-70
2022/07/01 04:55:14;;;;;;;;;;;;;;;21.88;94.21;99633.89;1708650;84;20100;-71
2022/07/01 04:57:40;;;;;;;;;;;;;;;22.00;91.88;99636.93;1708565;84;20486;-73
2022/07/01 05:00:10;;;;;;;;;;;;;;;22.09;89.73;99633.22;1707170;84;20140;-70
2022/07/01 05:02:41;;;;;;;;;;;;;;;22.19;88.72;99635.27;1730310;82;21147;-69
2022/07/01 05:05:08;;;;;;;;;;;;;;;22.27;87.57;99633.31;1727570;82;20151;-69
2022/07/01 05:07:36;;;;;;;;;;;;;;;22.35;86.92;99639.95;1735217;82;20135;-72
2022/07/01 05:10:06;;;;;;;;;;;;;;;22.43;86.25;99635.79;1736979;82;20435;-72
2022/07/01 05:12:35;;;;;;;;;;;;;;;22.49;85.53;99631.42;1732202;82;20465;-73
2022/07/01 05:15:06;;;;;;;;;;;;;;;22.57;85.04;99631.02;1715508;82;20074;-73
2022/07/01 05:23:17;;;;;;;;;;;;;;;22.88;81.99;99622.55;1710156;82;20154;-72
2022/07/01 05:25:47;;;;;;;;;;;;;;;23.00;81.86;99628.37;1657168;85;20123;-71
2022/07/01 05:28:17;;;;;;;;;;;;;;;23.08;82.29;99625.79;1677903;85;21291;-70
2022/07/01 05:30:45;;;;;;;;;;;;;;;23.17;80.33;99616.97;1677672;85;20156;-71
2022/07/01 05:33:16;;;;;;;;;;;;;;;23.26;80.43;99617.38;1677133;84;20175;-77
2022/07/01 05:35:44;;;;;;;;;;;;;;;23.35;78.88;99617.78;1677236;85;20175;-83
2022/07/01 05:38:18;;;;;;;;;;;;;;;23.43;77.87;99619.39;1677145;85;20131;-71
2022/07/01 05:40:47;;;;;;;;;;;;;;;23.51;76.86;99626.59;1677694;85;21166;-71
2022/07/01 05:43:23;;;;;;;;;;;;;;;23.60;75.58;99629.02;1677651;84;20172;-70
2022/07/01 05:45:58;;;;;;;;;;;;;;;23.69;72.83;99630.19;1677849;85;20152;-70
2022/07/01 05:48:25;;;;;;;;;;;;;;;23.77;72.26;99629.58;1674566;85;20207;-73
2022/07/01 05:50:52;;;;;;;;;;;;;;;23.82;72.22;99633.38;1677419;85;20116;-77
2022/07/01 05:53:23;;;;;;;;;;;;;;;23.89;72.10;99629.76;1655619;85;20132;-70
2022/07/01 05:55:54;;;;;;;;;;;;;;;23.94;71.33;99632.95;1674738;84;20144;-76
2022/07/01 05:58:20;;;;;;;;;;;;;;;24.01;72.01;99637.14;1677665;84;20144;-71
2022/07/01 06:00:48;;;;;;;;;;;;;;;24.12;73.00;99633.52;1677662;84;20985;-72
2022/07/01 06:03:15;;;;;;;;;;;;;;;24.22;71.63;99629.88;1677717;84;20155;-76
2022/07/01 06:05:44;;;;;;;;;;;;;;;24.32;71.07;99636.06;1677765;85;21227;-81
2022/07/01 06:08:13;;;;;;;;;;;;;;;24.39;70.64;99629.02;1655771;85;20116;-74
2022/07/01 06:10:41;;;;;;;;;;;;;;;24.48;70.84;99627.98;1677644;85;20131;-77
2022/07/01 06:13:14;;;;;;;;;;;;;;;24.59;71.32;99632.14;1675587;84;20639;-73
2022/07/01 06:15:41;;;;;;;;;;;;;;;24.69;70.67;99624.28;1677733;85;20114;-69
2022/07/01 06:18:10;;;;;;;;;;;;;;;24.77;72.00;99621.63;1723606;82;20955;-70
2022/07/01 06:20:42;;;;;;;;;;;;;;;24.91;73.68;99627.13;1751521;81;20128;-70
2022/07/01 06:23:08;;;;;;;;;;;;;;;25.03;70.48;99618.06;1715937;82;20117;-70
2022/07/01 06:25:35;;;;;;;;;;;;;;;25.04;69.30;99619.06;1738711;82;20125;-70
2022/07/01 06:28:01;;;;;;;;;;;;;;;25.07;69.95;99618.84;1739250;81;20402;-70
2022/07/01 06:30:33;;;;;;;;;;;;;;;25.14;70.33;99623.01;1739315;81;20081;-73
2022/07/01 06:33:00;;;;;;;;;;;;;;;25.25;69.90;99630.75;1715902;82;20145;-73
2022/07/01 06:35:26;;;;;;;;;;;;;;;25.38;70.29;99628.25;1739568;82;20212;-72
2022/07/01 06:37:57;;;;;;;;;;;;;;;25.50;68.10;99618.69;1739161;82;20094;-77
2022/07/01 06:40:27;;;;;;;;;;;;;;;25.58;67.53;99622.23;1739179;82;20081;-71
2022/07/01 06:42:55;;;;;;;;;;;;;;;25.69;65.76;99627.18;1739396;82;21105;-73
2022/07/01 06:45:32;;;;;;;;;;;;;;;25.79;64.16;99625.48;1739219;81;20117;-72
2022/07/01 06:48:03;;;;;;;;;;;;;;;25.84;64.12;99620.81;1739390;81;20427;-73
2022/07/01 06:50:28;;;;;;;;;;;;;;;25.90;61.74;99622.76;1738274;82;20124;-72
2022/07/01 06:53:02;;;;;;;;;;;;;;;25.92;62.66;99623.75;1739382;81;20082;-73
2022/07/01 06:55:32;;;;;;;;;;;;;;;25.93;63.34;99619.11;1738645;82;21988;-75
2022/07/01 06:58:00;;;;;;;;;;;;;;;25.97;63.24;99617.67;1737883;82;20104;-76
2022/07/01 07:00:26;;;;;;;;;;;;;;;26.03;63.40;99614.56;1739144;82;20137;-75
2022/07/01 07:03:02;;;;;;;;;;;;;;;26.12;63.46;99617.67;1716635;82;20090;-77
2022/07/01 07:05:37;;;;;;;;;;;;;;;26.16;61.28;99620.45;1739210;82;20134;-76
2022/07/01 07:08:06;;;;;;;;;;;;;;;26.14;61.08;99619.46;1739281;82;21171;-76
2022/07/01 07:10:33;;;;;;;;;;;;;;;26.21;63.07;99620.78;1739294;82;20069;-75
2022/07/01 07:13:03;;;;;;;;;;;;;;;26.28;61.30;99617.89;1716108;82;20137;-77
2022/07/01 07:15:35;;;;;;;;;;;;;;;26.35;62.16;99614.83;1737996;82;20126;-76
2022/07/01 07:18:09;;;;;;;;;;;;;;;26.43;60.26;99613.53;1738307;82;20093;-76
2022/07/01 07:20:35;;;;;;;;;;;;;;;26.47;59.62;99622.12;1736893;81;21002;-74
2022/07/01 07:23:04;;;;;;;;;;;;;;;26.50;57.94;99611.42;1719498;82;20097;-73
2022/07/01 07:25:31;;;;;;;;;;;;;;;26.56;57.34;99611.14;1735468;82;20113;-75
2022/07/01 07:27:58;;;;;;;;;;;;;;;26.71;56.53;99611.72;1738730;81;20601;-76
2022/07/01 07:30:31;;;;;;;;;;;;;;;26.85;56.45;99611.52;1718951;82;20177;-76
2022/07/01 07:32:57;;;;;;;;;;;;;;;26.99;56.47;99603.51;1737902;82;21084;-79
2022/07/01 07:35:25;;;;;;;;;;;;;;;27.11;57.44;99602.92;1719529;82;20110;-79
2022/07/01 07:37:52;;;;;;;;;;;;;;;27.25;56.12;99603.28;1739142;82;20113;-77
2022/07/01 07:40:25;;;;;;;;;;;;;;;27.34;55.02;99606.97;1738674;81;20415;-73
2022/07/01 07:42:59;;;;;;;;;;;;;;;27.38;55.73;99600.05;1718363;82;20439;-73
2022/07/01 07:45:28;;;;;;;;;;;;;;;27.42;55.20;99599.38;1737892;82;21134;-72
2022/07/01 07:47:56;;;;;;;;;;;;;;;27.39;55.53;99593.80;1738848;82;20074;-72
2022/07/01 07:50:25;;;;;;;;;;;;;;;27.28;55.59;99599.61;1738631;82;20424;-72
2022/07/01 07:52:59;;;;;;;;;;;;;;;27.17;55.76;99600.39;1719578;82;20444;-74
2022/07/01 07:55:25;;;;;;;;;;;;;;;27.09;56.78;99605.37;1738822;82;20081;-75
2022/07/01 07:57:52;;;;;;;;;;;;;;;27.11;55.83;99596.48;1729102;82;21078;-77
2022/07/01 08:00:19;;;;;;;;;;;;;;;27.14;56.83;99602.68;1708872;84;20099;-76
2022/07/01 08:02:50;;;;;;;;;;;;;;;27.13;56.09;99602.50;1708356;84;20119;-75
2022/07/01 08:05:22;;;;;;;;;;;;;;;27.27;57.08;99596.60;1709054;84;20123;-75
2022/07/01 08:07:52;;;;;;;;;;;;;;;27.56;58.29;99596.92;1709205;84;20435;-74
2022/07/01 08:10:27;;;;;;;;;;;;;;;27.89;56.61;99589.48;1709310;84;21065;-76
2022/07/01 08:12:52;;;;;;;;;;;;;;;28.27;55.76;99589.97;1688976;84;20418;-75
2022/07/01 08:15:22;;;;;;;;;;;;;;;28.70;53.21;99587.62;1702758;82;20123;-74
2022/07/01 08:17:48;;;;;;;;;;;;;;;28.71;50.55;99584.36;1735337;81;20122;-75
2022/07/01 08:20:17;;;;;;;;;;;;;;;28.52;52.20;99589.42;1735347;82;20094;-76
2022/07/01 08:22:47;;;;;;;;;;;;;;;28.38;51.71;99584.88;1735519;82;21170;-79
2022/07/01 08:25:21;;;;;;;;;;;;;;;28.34;54.15;99593.23;1756863;81;20112;-78
2022/07/01 08:27:46;;;;;;;;;;;;;;;28.43;53.61;99587.80;1697728;83;20151;-79
2022/07/01 08:30:16;;;;;;;;;;;;;;;28.46;54.17;99593.37;1704206;82;20094;-82
2022/07/01 08:32:43;;;;;;;;;;;;;;;28.41;52.72;99591.67;1735419;82;20445;-76
2022/07/01 08:35:18;;;;;;;;;;;;;;;28.57;53.30;99586.08;1697817;84;21072;-75
2022/07/01 08:37:43;;;;;;;;;;;;;;;28.93;51.33;99591.73;1697384;84;20148;-71
2022/07/01 08:40:15;;;;;;;;;;;;;;;29.38;51.50;99581.95;1698010;84;20202;-72
2022/07/01 08:42:44;;;;;;;;;;;;;;;29.89;50.61;99586.48;1698230;84;20102;-74
2022/07/01 08:45:15;;;;;;;;;;;;;;;30.52;48.78;99583.86;1697946;83;20474;-76
2022/07/01 08:47:50;;;;;;;;;;;;;;;31.06;45.53;99589.30;1676538;84;21804;-76
2022/07/01 08:50:38;;;;;;;;;;;;;;;31.12;46.34;99588.27;1697779;83;20151;-77
2022/07/01 08:52:56;;;;;;;;;;;;;;;30.90;45.04;99589.41;1696115;84;20469;-76
2022/07/01 08:55:25;;;;;;;;;;;;;;;30.53;45.10;99592.53;1698087;83;20150;-76
2022/07/01 08:57:53;;;;;;;;;;;;;;;30.43;47.85;99590.81;1697805;84;20130;-77
2022/07/01 09:00:31;;;;;;;;;;;;;;;30.69;46.63;99585.19;1697845;83;21257;-73
2022/07/01 09:02:58;;;;;;;;;;;;;;;31.01;43.20;99585.61;1675426;84;20170;-75
2022/07/01 09:05:28;;;;;;;;;;;;;;;31.04;44.12;99579.03;1690482;84;20116;-74
2022/07/01 09:08:05;;;;;;;;;;;;;;;30.85;44.59;99587.30;1680305;84;20510;-73
2022/07/01 09:10:33;;;;;;;;;;;;;;;30.43;44.40;99588.59;1734597;82;20082;-72
2022/07/01 09:13:11;;;;;;;;;;;;;;;30.07;46.80;99578.92;1734435;82;21288;-72
2022/07/01 09:15:44;;;;;;;;;;;;;;;29.69;46.41;99592.89;1753603;81;20145;-74
2022/07/01 09:18:14;;;;;;;;;;;;;;;29.28;47.02;99577.36;1747145;81;20432;-73
2022/07/01 09:20:43;;;;;;;;;;;;;;;28.89;47.48;99584.75;1731145;83;20484;-74
2022/07/01 09:23:14;;;;;;;;;;;;;;;28.66;48.05;99588.31;1730993;81;20158;-72
2022/07/01 09:25:51;;;;;;;;;;;;;;;28.83;49.73;99579.47;1709268;83;20098;-72
2022/07/01 09:28:20;;;;;;;;;;;;;;;29.32;50.31;99578.06;1718782;81;20431;-71
2022/07/01 09:30:51;;;;;;;;;;;;;;;29.99;48.28;99578.32;1716950;82;20127;-71
2022/07/01 09:33:29;;;;;;;;;;;;;;;30.56;44.45;99569.59;1736190;81;20120;-72
2022/07/01 09:35:53;;;;;;;;;;;;;;;31.07;43.07;99571.03;1760223;81;20085;-72
2022/07/01 09:38:21;;;;;;;;;;;;;;;31.51;44.19;99560.02;1760928;81;21497;-80
2022/07/01 09:41:02;;;;;;;;;;;;;;;31.97;42.21;99565.31;1738676;81;20096;-77
2022/07/01 09:43:29;;;;;;;;;;;;;;;32.34;39.61;99559.30;1749329;81;20104;-74
2022/07/01 09:46:03;;;;;;;;;;;;;;;32.54;39.45;99553.23;1738647;81;20108;-74
2022/07/01 09:48:37;;;;;;;;;;;;;;;32.75;37.73;99550.98;1738614;81;20097;-72
2022/07/01 09:51:05;;;;;;;;;;;;;;;32.93;36.22;99549.63;1761158;81;22090;-73
2022/07/01 09:53:33;;;;;;;;;;;;;;;32.97;38.43;99548.86;1760875;81;20104;-72
2022/07/01 09:55:59;;;;;;;;;;;;;;;33.05;38.83;99549.36;1760216;81;20085;-74
2022/07/01 09:58:28;;;;;;;;;;;;;;;33.22;38.65;99550.67;1730939;83;20086;-73
2022/07/01 10:00:59;;;;;;;;;;;;;;;33.33;37.51;99551.05;1730939;83;20091;-72
2022/07/01 10:03:26;;;;;;;;;;;;;;;33.41;36.47;99550.12;1730852;82;21837;-73
2022/07/01 10:06:01;;;;;;;;;;;;;;;33.38;35.28;99555.33;1708429;83;20422;-74
2022/07/01 10:08:52;;;;;;;;;;;;;;;33.19;35.95;99558.73;1706328;81;20423;-77
2022/07/01 10:11:44;;;;;;;;;;;;;;;33.00;36.89;99548.55;1760904;81;20092;-75
2022/07/01 10:14:13;;;;;;;;;;;;;;;33.09;36.72;99540.84;1761067;81;20088;-71
2022/07/01 10:16:40;;;;;;;;;;;;;;;33.36;36.82;99545.84;1760601;81;21132;-72
2022/07/01 10:19:25;;;;;;;;;;;;;;;33.58;36.45;99530.66;1761274;81;20080;-72
2022/07/01 10:21:57;;;;;;;;;;;;;;;33.70;36.58;99537.63;1760984;81;20143;-72
2022/07/01 10:24:25;;;;;;;;;;;;;;;33.54;35.85;99535.09;1757674;81;20202;-72
2022/07/01 10:27:00;;;;;;;;;;;;;;;32.94;35.09;99531.95;1760391;81;20080;-72
2022/07/01 10:29:32;;;;;;;;;;;;;;;32.52;36.95;99532.39;1761290;81;21024;-70
2022/07/01 10:32:03;;;;;;;;;;;;;;;32.35;36.15;99531.83;1759403;81;20080;-71
2022/07/01 10:34:36;;;;;;;;;;;;;;;32.46;36.70;99527.16;1759754;81;20146;-73
2022/07/01 10:37:06;;;;;;;;;;;;;;;32.76;35.71;99524.96;1760937;81;20513;-74
2022/07/01 10:40:06;;;;;;;;;;;;;;;33.05;34.63;99526.61;1753494;81;20100;-72
2022/07/01 10:42:42;;;;;;;;;;;;;;;33.31;33.51;99524.34;1755965;81;21241;-71
2022/07/01 10:45:13;;;;;;;;;;;;;;;33.52;34.94;99518.33;1745659;81;20969;-70
2022/07/01 10:47:41;;;;;;;;;;;;;;;33.72;34.44;99510.91;1760076;80;20080;-69
2022/07/01 10:50:20;;;;;;;;;;;;;;;33.84;33.02;99506.34;1761482;81;20132;-70
2022/07/01 10:53:00;;;;;;;;;;;;;;;33.66;34.36;99505.69;1751918;81;20400;-71
2022/07/01 10:55:42;;;;;;;;;;;;;;;33.57;34.09;99508.53;1730784;83;22170;-74
2022/07/01 10:58:11;;;;;;;;;;;;;;;33.44;35.44;99508.71;1739575;81;20100;-74
2022/07/01 11:00:47;;;;;;;;;;;;;;;33.63;33.53;99509.48;1744345;81;20450;-69
2022/07/01 11:03:25;;;;;;;;;;;;;;;33.92;34.09;99506.81;1719721;81;20177;-69
2022/07/01 11:06:01;;;;;;;;;;;;;;;34.09;33.12;99497.42;1702497;82;20095;-69
2022/07/01 11:08:31;;;;;;;;;;;;;;;34.12;33.22;99502.17;1709084;82;20134;-69
2022/07/01 11:11:03;;;;;;;;;;;;;;;34.11;33.55;99503.44;1731127;82;20118;-69
2022/07/01 11:13:30;;;;;;;;;;;;;;;34.23;33.71;99502.30;1730876;83;20092;-68
2022/07/01 11:16:03;;;;;;;;;;;;;;;34.34;33.46;99499.77;1691566;84;20132;-69
2022/07/01 11:18:31;;;;;;;;;;;;;;;34.36;33.87;99492.33;1702466;82;20165;-69
2022/07/01 11:21:07;;;;;;;;;;;;;;;34.45;31.69;99497.20;1682393;82;20751;-68
2022/07/01 11:23:38;;;;;;;;;;;;;;;34.04;32.00;99488.13;1735076;81;20082;-69
2022/07/01 11:26:08;;;;;;;;;;;;;;;33.51;33.69;99484.81;1737013;82;20453;-69
2022/07/01 11:28:40;;;;;;;;;;;;;;;33.14;34.82;99489.66;1737104;82;20665;-74
2022/07/01 11:31:07;;;;;;;;;;;;;;;33.08;35.74;99484.44;1735086;82;20102;-74
2022/07/01 11:33:42;;;;;;;;;;;;;;;33.31;37.85;99483.88;1741743;81;21260;-72
2022/07/01 11:41:46;;;;;;;;;;;;;;;34.22;34.54;99476.51;1738062;82;20114;-70
2022/07/01 11:44:15;;;;;;;;;;;;;;;34.24;34.29;99481.88;1732113;82;20420;-71
2022/07/01 11:46:51;;;;;;;;;;;;;;;33.95;33.02;99485.93;1734018;82;21105;-72
2022/07/01 11:49:23;;;;;;;;;;;;;;;33.32;34.26;99476.92;1735615;82;20114;-70
2022/07/01 11:51:56;;;;;;;;;;;;;;;32.90;35.25;99484.42;1705007;82;20138;-71
2022/07/01 11:54:30;;;;;;;;;;;;;;;32.62;36.92;99479.23;1748143;81;20094;-72
2022/07/01 11:56:57;;;;;;;;;;;;;;;32.78;36.43;99474.75;1734613;81;20107;-73
2022/07/01 11:59:26;;;;;;;;;;;;;;;33.00;36.50;99470.36;1731877;81;21491;-74
2022/07/01 12:01:56;;;;;;;;;;;;;;;33.23;35.92;99459.03;1704445;82;20098;-73
2022/07/01 12:04:24;;;;;;;;;;;;;;;33.48;36.17;99466.50;1745846;81;20092;-72
2022/07/01 12:06:55;;;;;;;;;;;;;;;33.79;35.93;99465.67;1765662;80;20141;-74
2022/07/01 12:09:25;;;;;;;;;;;;;;;33.96;33.48;99461.88;1765489;81;20116;-74
2022/07/01 12:11:52;;;;;;;;;;;;;;;33.98;35.88;99462.20;1735223;81;21111;-76
2022/07/01 12:14:21;;;;;;;;;;;;;;;34.24;35.39;99469.70;1765616;81;20434;-75
2022/07/01 12:16:51;;;;;;;;;;;;;;;34.51;34.36;99455.39;1764295;81;20144;-69
2022/07/01 12:19:29;;;;;;;;;;;;;;;34.74;33.84;99458.10;1707905;82;20120;-72
2022/07/01 12:22:00;;;;;;;;;;;;;;;35.01;32.82;99461.47;1721443;82;20538;-71
2022/07/01 12:24:35;;;;;;;;;;;;;;;34.87;32.09;99462.18;1695309;82;20092;-68
2022/07/01 12:27:08;;;;;;;;;;;;;;;34.32;32.93;99457.52;1711856;82;20069;-74
2022/07/01 12:29:51;;;;;;;;;;;;;;;33.98;34.14;99466.47;1746808;82;20073;-74
2022/07/01 12:32:23;;;;;;;;;;;;;;;33.92;33.69;99456.98;1742416;82;20402;-78
2022/07/01 12:34:56;;;;;;;;;;;;;;;34.06;33.70;99459.97;1738677;82;20073;-73
2022/07/01 12:37:32;;;;;;;;;;;;;;;34.25;33.83;99456.40;1718773;82;20101;-73
2022/07/01 12:40:05;;;;;;;;;;;;;;;34.45;33.46;99463.02;1738432;82;20432;-75
2022/07/01 12:42:44;;;;;;;;;;;;;;;34.64;33.57;99459.45;1732851;82;20120;-77
2022/07/01 12:45:15;;;;;;;;;;;;;;;34.90;32.18;99456.30;1715671;82;20766;-71
2022/07/01 12:47:49;;;;;;;;;;;;;;;35.16;32.75;99453.76;1717565;82;20084;-73
2022/07/01 12:50:21;;;;;;;;;;;;;;;35.53;32.54;99457.12;1709051;84;21151;-71
2022/07/01 12:53:17;;;;;;;;;;;;;;;35.97;31.91;99447.19;1704466;84;20087;-71
2022/07/01 12:55:48;;;;;;;;;;;;;;;36.05;30.34;99445.52;1708535;83;20095;-72
2022/07/01 12:58:23;;;;;;;;;;;;;;;35.89;32.51;99448.86;1709168;82;20151;-73
2022/07/01 13:00:55;;;;;;;;;;;;;;;35.86;33.64;99445.55;1709326;84;20108;-74
2022/07/01 13:03:25;;;;;;;;;;;;;;;35.91;33.17;99442.02;1708540;84;21978;-73
2022/07/01 13:06:00;;;;;;;;;;;;;;;35.90;32.76;99443.30;1686069;84;20088;-72
2022/07/01 13:08:39;;;;;;;;;;;;;;;35.77;32.76;99434.86;1708506;84;20083;-71
2022/07/01 13:11:06;;;;;;;;;;;;;;;35.63;33.28;99439.27;1708668;84;20130;-73
2022/07/01 13:13:36;;;;;;;;;;;;;;;35.60;33.52;99446.75;1708347;83;20133;-74